sensor_id;sensor_type;location;lat;lon;timestamp;temperature;humidity
16229;DHT22;8222;51.462;12.630;2022-11-20T00:02:08;-0.60;99.90
16229;DHT22;8222;51.462;12.630;2022-11-20T00:04:33;-0.80;99.90
16229;DHT22;8222;51.462;12.630;2022-11-20T00:06:59;-0.80;99.90
16229;DHT22;8222;51.462;12.630;2022-11-20T00:09:25;-0.70;99.90
16229;DHT22;8222;51.462;12.630;2022-11-20T00:11:50;-0.60;99.90
16229;DHT22;8222;51.462;12.630;2022-11-20T00:14:16;-0.80;99.90
16229;DHT22;8222;51.462;12.630;2022-11-20T00:16:41;-0.70;99.90
16229;DHT22;8222;51.462;12.630;2022-11-20T00:19:07;-0.70;99.90
16229;DHT22;8222;51.462;12.630;2022-11-20T00:21:35;-0.70;99.90
16229;DHT22;8222;51.462;12.630;2022-11-20T00:24:01;-0.50;99.90
16229;DHT22;8222;51.462;12.630;2022-11-20T00:26:27;-0.60;99.90
16229;DHT22;8222;51.462;12.630;2022-11-20T00:28:55;-0.50;99.90
16229;DHT22;8222;51.462;12.630;2022-11-20T00:31:21;-0.70;99.90
16229;DHT22;8222;51.462;12.630;2022-11-20T00:33:49;-0.80;99.90
16229;DHT22;8222;51.462;12.630;2022-11-20T00:36:20;-0.90;99.90
16229;DHT22;8222;51.462;12.630;2022-11-20T00:38:46;-0.90;99.90
16229;DHT22;8222;51.462;12.630;2022-11-20T00:41:14;-0.90;99.90
16229;DHT22;8222;51.462;12.630;2022-11-20T00:43:42;-0.90;99.90
16229;DHT22;8222;51.462;12.630;2022-11-20T00:46:14;-0.20;99.90
16229;DHT22;8222;51.462;12.630;2022-11-20T00:48:40;-1.00;99.90
16229;DHT22;8222;51.462;12.630;2022-11-20T00:51:06;-1.00;99.90
16229;DHT22;8222;51.462;12.630;2022-11-20T00:53:31;-1.00;99.90
16229;DHT22;8222;51.462;12.630;2022-11-20T00:56:03;-0.90;99.90
16229;DHT22;8222;51.462;12.630;2022-11-20T00:58:34;-0.80;99.90
16229;DHT22;8222;51.462;12.630;2022-11-20T01:01:14;-0.90;99.90
16229;DHT22;8222;51.462;12.630;2022-11-20T01:03:42;-0.80;99.90
16229;DHT22;8222;51.462;12.630;2022-11-20T01:08:41;-0.70;99.90
16229;DHT22;8222;51.462;12.630;2022-11-20T01:11:10;-0.80;99.90
16229;DHT22;8222;51.462;12.630;2022-11-20T01:13:37;-0.80;99.90
16229;DHT22;8222;51.462;12.630;2022-11-20T01:16:08;-0.70;99.90
16229;DHT22;8222;51.462;12.630;2022-11-20T01:18:35;-0.90;99.90
16229;DHT22;8222;51.462;12.630;2022-11-20T01:21:12;-0.80;99.90
16229;DHT22;8222;51.462;12.630;2022-11-20T01:23:39;-0.90;99.90
16229;DHT22;8222;51.462;12.630;2022-11-20T01:26:11;-0.80;99.90
16229;DHT22;8222;51.462;12.630;2022-11-20T01:28:42;-0.90;99.90
16229;DHT22;8222;51.462;12.630;2022-11-20T01:31:35;-0.80;99.90
16229;DHT22;8222;51.462;12.630;2022-11-20T01:34:04;1.40;99.90
16229;DHT22;8222;51.462;12.630;2022-11-20T01:36:31;-0.70;99.90
16229;DHT22;8222;51.462;12.630;2022-11-20T01:39:01;-0.90;99.90
16229;DHT22;8222;51.462;12.630;2022-11-20T01:41:29;-0.90;99.90
16229;DHT22;8222;51.462;12.630;2022-11-20T01:44:16;-0.90;99.90
16229;DHT22;8222;51.462;12.630;2022-11-20T01:47:12;-0.90;99.90
16229;DHT22;8222;51.462;12.630;2022-11-20T01:49:44;-1.00;99.90
16229;DHT22;8222;51.462;12.630;2022-11-20T01:52:16;-0.80;99.90
16229;DHT22;8222;51.462;12.630;2022-11-20T01:54:51;-0.90;99.90
16229;DHT22;8222;51.462;12.630;2022-11-20T01:57:20;-1.00;99.90
16229;DHT22;8222;51.462;12.630;2022-11-20T01:59:52;-1.10;99.90
16229;DHT22;8222;51.462;12.630;2022-11-20T02:02:20;-1.10;99.90
16229;DHT22;8222;51.462;12.630;2022-11-20T02:04:47;-1.10;99.90
16229;DHT22;8222;51.462;12.630;2022-11-20T02:07:13;-1.20;99.90
16229;DHT22;8222;51.462;12.630;2022-11-20T02:09:39;-0.90;99.90
16229;DHT22;8222;51.462;12.630;2022-11-20T02:12:05;-1.30;99.90
16229;DHT22;8222;51.462;12.630;2022-11-20T02:14:51;-1.30;99.90
16229;DHT22;8222;51.462;12.630;2022-11-20T02:17:16;-1.20;99.90
16229;DHT22;8222;51.462;12.630;2022-11-20T02:19:44;-1.20;99.90
16229;DHT22;8222;51.462;12.630;2022-11-20T02:22:29;-1.30;99.90
16229;DHT22;8222;51.462;12.630;2022-11-20T02:24:57;-1.30;99.90
16229;DHT22;8222;51.462;12.630;2022-11-20T02:27:23;-1.40;99.90
16229;DHT22;8222;51.462;12.630;2022-11-20T02:29:55;-1.30;99.90
16229;DHT22;8222;51.462;12.630;2022-11-20T02:32:26;-1.30;99.90
16229;DHT22;8222;51.462;12.630;2022-11-20T02:34:53;-1.30;99.90
16229;DHT22;8222;51.462;12.630;2022-11-20T02:37:20;-1.40;99.90
16229;DHT22;8222;51.462;12.630;2022-11-20T02:39:50;-1.20;99.90
16229;DHT22;8222;51.462;12.630;2022-11-20T02:42:16;-1.40;99.90
16229;DHT22;8222;51.462;12.630;2022-11-20T02:44:42;-1.40;99.90
16229;DHT22;8222;51.462;12.630;2022-11-20T02:47:08;-1.40;99.90
16229;DHT22;8222;51.462;12.630;2022-11-20T02:49:34;-1.40;99.90
16229;DHT22;8222;51.462;12.630;2022-11-20T02:52:00;-1.50;99.90
16229;DHT22;8222;51.462;12.630;2022-11-20T02:54:28;-0.90;99.90
16229;DHT22;8222;51.462;12.630;2022-11-20T02:56:54;-1.50;99.90
16229;DHT22;8222;51.462;12.630;2022-11-20T02:59:19;-1.50;99.90
16229;DHT22;8222;51.462;12.630;2022-11-20T03:01:45;-1.50;99.90
16229;DHT22;8222;51.462;12.630;2022-11-20T03:04:10;-1.60;99.90
16229;DHT22;8222;51.462;12.630;2022-11-20T03:06:36;-1.60;99.90
16229;DHT22;8222;51.462;12.630;2022-11-20T03:09:02;-1.60;99.90
16229;DHT22;8222;51.462;12.630;2022-11-20T03:11:30;-1.60;99.90
16229;DHT22;8222;51.462;12.630;2022-11-20T03:13:56;-1.50;99.90
16229;DHT22;8222;51.462;12.630;2022-11-20T03:16:22;-1.50;99.90
16229;DHT22;8222;51.462;12.630;2022-11-20T03:18:49;-1.50;99.90
16229;DHT22;8222;51.462;12.630;2022-11-20T03:21:17;-1.60;99.90
16229;DHT22;8222;51.462;12.630;2022-11-20T03:23:42;-1.60;99.90
16229;DHT22;8222;51.462;12.630;2022-11-20T03:26:09;-1.60;99.90
16229;DHT22;8222;51.462;12.630;2022-11-20T03:28:35;-1.70;99.90
16229;DHT22;8222;51.462;12.630;2022-11-20T03:31:12;-1.80;99.90
16229;DHT22;8222;51.462;12.630;2022-11-20T03:33:39;-1.80;99.90
16229;DHT22;8222;51.462;12.630;2022-11-20T03:36:08;-1.80;99.90
16229;DHT22;8222;51.462;12.630;2022-11-20T03:38:35;-1.90;99.90
16229;DHT22;8222;51.462;12.630;2022-11-20T03:41:08;-2.00;99.90
16229;DHT22;8222;51.462;12.630;2022-11-20T03:43:34;-1.90;99.90
16229;DHT22;8222;51.462;12.630;2022-11-20T03:46:01;-1.90;99.90
16229;DHT22;8222;51.462;12.630;2022-11-20T03:48:26;-2.00;99.90
16229;DHT22;8222;51.462;12.630;2022-11-20T03:51:14;-2.00;99.90
16229;DHT22;8222;51.462;12.630;2022-11-20T03:53:42;-2.00;99.90
16229;DHT22;8222;51.462;12.630;2022-11-20T03:56:09;-1.90;99.90
16229;DHT22;8222;51.462;12.630;2022-11-20T03:58:36;-2.00;99.90
16229;DHT22;8222;51.462;12.630;2022-11-20T04:01:06;-2.10;99.90
16229;DHT22;8222;51.462;12.630;2022-11-20T04:03:35;-2.10;99.90
16229;DHT22;8222;51.462;12.630;2022-11-20T04:06:21;-2.10;99.90
16229;DHT22;8222;51.462;12.630;2022-11-20T04:08:49;-2.00;99.90
16229;DHT22;8222;51.462;12.630;2022-11-20T04:11:20;-2.10;99.90
16229;DHT22;8222;51.462;12.630;2022-11-20T04:13:48;-2.10;99.90
16229;DHT22;8222;51.462;12.630;2022-11-20T04:16:15;-2.10;99.90
16229;DHT22;8222;51.462;12.630;2022-11-20T04:18:44;-2.10;99.90
16229;DHT22;8222;51.462;12.630;2022-11-20T04:21:10;-2.10;99.90
16229;DHT22;8222;51.462;12.630;2022-11-20T04:23:36;-2.10;99.90
16229;DHT22;8222;51.462;12.630;2022-11-20T04:26:07;-2.20;99.90
16229;DHT22;8222;51.462;12.630;2022-11-20T04:28:33;-2.10;99.90
16229;DHT22;8222;51.462;12.630;2022-11-20T04:31:10;-2.00;99.90
16229;DHT22;8222;51.462;12.630;2022-11-20T04:33:37;-2.00;99.90
16229;DHT22;8222;51.462;12.630;2022-11-20T04:36:11;-1.90;99.90
16229;DHT22;8222;51.462;12.630;2022-11-20T04:38:36;-1.90;99.90
16229;DHT22;8222;51.462;12.630;2022-11-20T04:41:04;-1.80;99.90
16229;DHT22;8222;51.462;12.630;2022-11-20T04:43:31;-1.80;99.90
16229;DHT22;8222;51.462;12.630;2022-11-20T04:45:58;-1.80;99.90
16229;DHT22;8222;51.462;12.630;2022-11-20T04:48:24;-1.90;99.90
16229;DHT22;8222;51.462;12.630;2022-11-20T04:50:51;-1.80;99.90
16229;DHT22;8222;51.462;12.630;2022-11-20T04:53:19;-1.90;99.90
16229;DHT22;8222;51.462;12.630;2022-11-20T04:55:45;-1.90;99.90
16229;DHT22;8222;51.462;12.630;2022-11-20T04:58:10;-1.90;99.90
16229;DHT22;8222;51.462;12.630;2022-11-20T05:00:38;-1.90;99.90
16229;DHT22;8222;51.462;12.630;2022-11-20T05:03:04;-2.00;99.90
16229;DHT22;8222;51.462;12.630;2022-11-20T05:05:30;-2.00;99.90
16229;DHT22;8222;51.462;12.630;2022-11-20T05:07:57;-1.90;99.90
16229;DHT22;8222;51.462;12.630;2022-11-20T05:10:26;-2.00;99.90
16229;DHT22;8222;51.462;12.630;2022-11-20T05:12:52;-2.10;99.90
16229;DHT22;8222;51.462;12.630;2022-11-20T05:15:20;-2.20;99.90
16229;DHT22;8222;51.462;12.630;2022-11-20T05:17:49;-2.20;99.90
16229;DHT22;8222;51.462;12.630;2022-11-20T05:20:15;-2.20;99.90
16229;DHT22;8222;51.462;12.630;2022-11-20T05:22:41;-2.20;99.90
16229;DHT22;8222;51.462;12.630;2022-11-20T05:25:07;-2.20;99.90
16229;DHT22;8222;51.462;12.630;2022-11-20T05:27:35;-2.20;99.90
16229;DHT22;8222;51.462;12.630;2022-11-20T05:30:01;-2.10;99.90
16229;DHT22;8222;51.462;12.630;2022-11-20T05:32:26;-2.10;99.90
16229;DHT22;8222;51.462;12.630;2022-11-20T05:34:52;-2.10;99.90
16229;DHT22;8222;51.462;12.630;2022-11-20T05:37:18;-2.10;99.90
16229;DHT22;8222;51.462;12.630;2022-11-20T05:39:46;-2.10;99.90
16229;DHT22;8222;51.462;12.630;2022-11-20T05:42:12;-1.20;99.90
16229;DHT22;8222;51.462;12.630;2022-11-20T05:45:00;-2.10;99.90
16229;DHT22;8222;51.462;12.630;2022-11-20T05:47:27;-2.20;99.90
16229;DHT22;8222;51.462;12.630;2022-11-20T05:49:53;-2.10;99.90
16229;DHT22;8222;51.462;12.630;2022-11-20T05:52:20;-2.10;99.90
16229;DHT22;8222;51.462;12.630;2022-11-20T05:54:47;-2.20;99.90
16229;DHT22;8222;51.462;12.630;2022-11-20T05:57:13;-2.20;99.90
16229;DHT22;8222;51.462;12.630;2022-11-20T05:59:38;-2.20;99.90
16229;DHT22;8222;51.462;12.630;2022-11-20T06:02:04;-2.20;99.90
16229;DHT22;8222;51.462;12.630;2022-11-20T06:04:30;-2.20;99.90
16229;DHT22;8222;51.462;12.630;2022-11-20T06:06:57;-2.10;99.90
16229;DHT22;8222;51.462;12.630;2022-11-20T06:09:23;-1.80;99.90
16229;DHT22;8222;51.462;12.630;2022-11-20T06:11:49;-2.00;99.90
16229;DHT22;8222;51.462;12.630;2022-11-20T06:14:14;-2.00;99.90
16229;DHT22;8222;51.462;12.630;2022-11-20T06:16:42;-1.90;99.90
16229;DHT22;8222;51.462;12.630;2022-11-20T06:19:07;-1.90;99.90
16229;DHT22;8222;51.462;12.630;2022-11-20T06:21:33;-1.80;99.90
16229;DHT22;8222;51.462;12.630;2022-11-20T06:23:58;-1.70;99.90
16229;DHT22;8222;51.462;12.630;2022-11-20T06:26:26;-1.70;99.90
16229;DHT22;8222;51.462;12.630;2022-11-20T06:28:53;-1.80;99.90
16229;DHT22;8222;51.462;12.630;2022-11-20T06:31:21;-1.80;99.90
16229;DHT22;8222;51.462;12.630;2022-11-20T06:33:48;-1.80;99.90
16229;DHT22;8222;51.462;12.630;2022-11-20T06:36:15;-1.80;99.90
16229;DHT22;8222;51.462;12.630;2022-11-20T06:38:41;-1.90;99.90
16229;DHT22;8222;51.462;12.630;2022-11-20T06:41:10;-2.00;99.90
16229;DHT22;8222;51.462;12.630;2022-11-20T06:43:38;-2.00;99.90
16229;DHT22;8222;51.462;12.630;2022-11-20T06:46:03;-1.80;99.90
16229;DHT22;8222;51.462;12.630;2022-11-20T06:48:29;-1.80;99.90
16229;DHT22;8222;51.462;12.630;2022-11-20T06:50:55;-1.90;99.90
16229;DHT22;8222;51.462;12.630;2022-11-20T06:53:22;-1.80;99.90
16229;DHT22;8222;51.462;12.630;2022-11-20T06:55:48;-1.80;99.90
16229;DHT22;8222;51.462;12.630;2022-11-20T06:58:16;-1.80;99.90
16229;DHT22;8222;51.462;12.630;2022-11-20T07:00:42;-1.70;99.90
16229;DHT22;8222;51.462;12.630;2022-11-20T07:03:10;-1.70;99.90
16229;DHT22;8222;51.462;12.630;2022-11-20T07:05:36;-1.70;99.90
16229;DHT22;8222;51.462;12.630;2022-11-20T07:08:03;-1.70;99.90
16229;DHT22;8222;51.462;12.630;2022-11-20T07:10:29;-1.60;99.90
16229;DHT22;8222;51.462;12.630;2022-11-20T07:12:54;-1.60;99.90
16229;DHT22;8222;51.462;12.630;2022-11-20T07:15:21;-1.60;99.90
16229;DHT22;8222;51.462;12.630;2022-11-20T07:17:48;-1.50;99.90
16229;DHT22;8222;51.462;12.630;2022-11-20T07:20:15;-1.50;99.90
16229;DHT22;8222;51.462;12.630;2022-11-20T07:22:41;-1.40;99.90
16229;DHT22;8222;51.462;12.630;2022-11-20T07:25:07;-1.30;99.90
16229;DHT22;8222;51.462;12.630;2022-11-20T07:27:33;-1.40;99.90
16229;DHT22;8222;51.462;12.630;2022-11-20T07:29:58;-1.10;99.90
16229;DHT22;8222;51.462;12.630;2022-11-20T07:32:24;-1.10;99.90
16229;DHT22;8222;51.462;12.630;2022-11-20T07:34:50;-1.00;99.90
16229;DHT22;8222;51.462;12.630;2022-11-20T07:37:16;-0.90;99.90
16229;DHT22;8222;51.462;12.630;2022-11-20T07:39:41;-1.00;99.90
16229;DHT22;8222;51.462;12.630;2022-11-20T07:42:07;-1.00;99.90
16229;DHT22;8222;51.462;12.630;2022-11-20T07:44:33;-0.90;99.90
16229;DHT22;8222;51.462;12.630;2022-11-20T07:46:59;-0.80;99.90
16229;DHT22;8222;51.462;12.630;2022-11-20T07:49:25;-0.70;99.90
16229;DHT22;8222;51.462;12.630;2022-11-20T07:51:51;-0.60;99.90
16229;DHT22;8222;51.462;12.630;2022-11-20T07:54:19;-0.60;99.90
16229;DHT22;8222;51.462;12.630;2022-11-20T07:56:46;-0.60;99.90
16229;DHT22;8222;51.462;12.630;2022-11-20T07:59:12;-0.60;99.90
16229;DHT22;8222;51.462;12.630;2022-11-20T08:01:38;0.30;99.90
16229;DHT22;8222;51.462;12.630;2022-11-20T08:04:04;-0.50;99.90
16229;DHT22;8222;51.462;12.630;2022-11-20T08:06:32;-0.30;99.90
16229;DHT22;8222;51.462;12.630;2022-11-20T08:08:58;-0.30;99.90
16229;DHT22;8222;51.462;12.630;2022-11-20T08:11:24;-0.30;99.90
16229;DHT22;8222;51.462;12.630;2022-11-20T08:14:08;-0.20;99.90
16229;DHT22;8222;51.462;12.630;2022-11-20T08:16:44;0.90;99.90
16229;DHT22;8222;51.462;12.630;2022-11-20T08:19:11;0.00;99.90
16229;DHT22;8222;51.462;12.630;2022-11-20T08:21:37;0.10;99.90
16229;DHT22;8222;51.462;12.630;2022-11-20T08:24:03;0.20;99.90
16229;DHT22;8222;51.462;12.630;2022-11-20T08:26:31;0.00;99.90
16229;DHT22;8222;51.462;12.630;2022-11-20T08:28:57;0.20;99.90
16229;DHT22;8222;51.462;12.630;2022-11-20T08:31:24;0.30;99.90
16229;DHT22;8222;51.462;12.630;2022-11-20T08:33:52;0.50;99.90
16229;DHT22;8222;51.462;12.630;2022-11-20T08:36:18;0.50;99.90
16229;DHT22;8222;51.462;12.630;2022-11-20T08:38:52;0.60;99.90
16229;DHT22;8222;51.462;12.630;2022-11-20T08:41:18;0.70;99.90
16229;DHT22;8222;51.462;12.630;2022-11-20T08:44:03;0.80;99.90
16229;DHT22;8222;51.462;12.630;2022-11-20T08:46:36;0.70;99.90
16229;DHT22;8222;51.462;12.630;2022-11-20T08:49:07;0.70;99.90
16229;DHT22;8222;51.462;12.630;2022-11-20T08:51:33;-0.20;99.90
16229;DHT22;8222;51.462;12.630;2022-11-20T08:54:01;0.80;99.90
16229;DHT22;8222;51.462;12.630;2022-11-20T08:56:27;0.70;99.90
16229;DHT22;8222;51.462;12.630;2022-11-20T08:58:53;0.90;99.90
16229;DHT22;8222;51.462;12.630;2022-11-20T09:01:19;0.80;99.90
16229;DHT22;8222;51.462;12.630;2022-11-20T09:03:45;1.00;99.90
16229;DHT22;8222;51.462;12.630;2022-11-20T09:06:11;1.10;99.90
16229;DHT22;8222;51.462;12.630;2022-11-20T09:08:37;1.90;99.90
16229;DHT22;8222;51.462;12.630;2022-11-20T09:11:03;1.20;99.90
16229;DHT22;8222;51.462;12.630;2022-11-20T09:13:29;1.30;99.90
16229;DHT22;8222;51.462;12.630;2022-11-20T09:15:57;1.20;99.90
16229;DHT22;8222;51.462;12.630;2022-11-20T09:18:23;1.20;99.90
16229;DHT22;8222;51.462;12.630;2022-11-20T09:20:49;1.60;99.90
16229;DHT22;8222;51.462;12.630;2022-11-20T09:23:15;1.30;99.90
16229;DHT22;8222;51.462;12.630;2022-11-20T09:25:41;1.50;99.90
16229;DHT22;8222;51.462;12.630;2022-11-20T09:28:07;1.60;99.90
16229;DHT22;8222;51.462;12.630;2022-11-20T09:30:32;1.60;99.90
16229;DHT22;8222;51.462;12.630;2022-11-20T09:32:58;2.10;99.90
16229;DHT22;8222;51.462;12.630;2022-11-20T09:35:24;1.80;99.90
16229;DHT22;8222;51.462;12.630;2022-11-20T09:37:49;2.00;99.90
16229;DHT22;8222;51.462;12.630;2022-11-20T09:40:22;2.00;99.90
16229;DHT22;8222;51.462;12.630;2022-11-20T09:48:41;2.10;99.90
16229;DHT22;8222;51.462;12.630;2022-11-20T09:54:21;2.10;99.90
16229;DHT22;8222;51.462;12.630;2022-11-20T09:56:54;2.00;99.90
16229;DHT22;8222;51.462;12.630;2022-11-20T10:02:03;2.30;99.90
16229;DHT22;8222;51.462;12.630;2022-11-20T10:04:33;2.30;99.90
16229;DHT22;8222;51.462;12.630;2022-11-20T10:07:13;2.50;99.90
16229;DHT22;8222;51.462;12.630;2022-11-20T10:09:48;2.50;99.90
16229;DHT22;8222;51.462;12.630;2022-11-20T10:12:39;2.70;99.90
16229;DHT22;8222;51.462;12.630;2022-11-20T10:15:33;2.50;99.90
16229;DHT22;8222;51.462;12.630;2022-11-20T10:20:48;2.70;99.90
16229;DHT22;8222;51.462;12.630;2022-11-20T10:26:16;2.80;99.90
16229;DHT22;8222;51.462;12.630;2022-11-20T10:31:41;2.90;99.90
16229;DHT22;8222;51.462;12.630;2022-11-20T10:34:20;3.00;99.90
16229;DHT22;8222;51.462;12.630;2022-11-20T10:37:01;3.20;99.90
16229;DHT22;8222;51.462;12.630;2022-11-20T10:42:34;3.40;99.90
16229;DHT22;8222;51.462;12.630;2022-11-20T10:45:18;3.60;99.90
16229;DHT22;8222;51.462;12.630;2022-11-20T10:47:47;3.50;99.90
16229;DHT22;8222;51.462;12.630;2022-11-20T10:50:18;3.60;99.90
16229;DHT22;8222;51.462;12.630;2022-11-20T10:55:57;3.60;99.90
16229;DHT22;8222;51.462;12.630;2022-11-20T10:58:37;3.70;99.90
16229;DHT22;8222;51.462;12.630;2022-11-20T11:01:17;3.70;99.90
16229;DHT22;8222;51.462;12.630;2022-11-20T11:03:43;3.70;99.90
16229;DHT22;8222;51.462;12.630;2022-11-20T11:06:36;4.00;99.90
16229;DHT22;8222;51.462;12.630;2022-11-20T11:09:10;3.80;99.90
16229;DHT22;8222;51.462;12.630;2022-11-20T11:11:38;3.80;99.90
16229;DHT22;8222;51.462;12.630;2022-11-20T11:14:08;4.00;99.90
16229;DHT22;8222;51.462;12.630;2022-11-20T11:16:34;4.00;99.90
16229;DHT22;8222;51.462;12.630;2022-11-20T11:19:18;4.00;99.90
16229;DHT22;8222;51.462;12.630;2022-11-20T11:21:49;4.00;99.90
16229;DHT22;8222;51.462;12.630;2022-11-20T11:24:28;4.20;99.90
16229;DHT22;8222;51.462;12.630;2022-11-20T11:27:02;4.20;99.90
16229;DHT22;8222;51.462;12.630;2022-11-20T11:29:34;4.00;99.90
16229;DHT22;8222;51.462;12.630;2022-11-20T11:32:08;4.10;99.90
16229;DHT22;8222;51.462;12.630;2022-11-20T11:34:38;3.80;99.90
16229;DHT22;8222;51.462;12.630;2022-11-20T11:37:05;4.30;99.90
16229;DHT22;8222;51.462;12.630;2022-11-20T11:39:39;3.90;99.90
16229;DHT22;8222;51.462;12.630;2022-11-20T11:42:11;3.90;99.90
16229;DHT22;8222;51.462;12.630;2022-11-20T11:44:44;4.00;99.90
16229;DHT22;8222;51.462;12.630;2022-11-20T11:47:46;3.70;99.90
16229;DHT22;8222;51.462;12.630;2022-11-20T11:50:21;3.80;99.90
16229;DHT22;8222;51.462;12.630;2022-11-20T11:55:35;3.60;99.90
16229;DHT22;8222;51.462;12.630;2022-11-20T12:01:01;3.80;99.90
16229;DHT22;8222;51.462;12.630;2022-11-20T12:03:35;3.90;99.90
16229;DHT22;8222;51.462;12.630;2022-11-20T12:06:16;3.90;99.90
16229;DHT22;8222;51.462;12.630;2022-11-20T12:08:59;3.80;99.90
16229;DHT22;8222;51.462;12.630;2022-11-20T12:11:46;3.80;99.90
16229;DHT22;8222;51.462;12.630;2022-11-20T12:16:40;3.90;99.90
16229;DHT22;8222;51.462;12.630;2022-11-20T12:19:13;4.00;99.90
16229;DHT22;8222;51.462;12.630;2022-11-20T12:27:08;3.90;99.90
16229;DHT22;8222;51.462;12.630;2022-11-20T12:43:33;3.90;99.90
16229;DHT22;8222;51.462;12.630;2022-11-20T12:49:07;3.90;99.90
16229;DHT22;8222;51.462;12.630;2022-11-20T12:52:06;4.00;99.90
16229;DHT22;8222;51.462;12.630;2022-11-20T12:55:00;4.10;99.90
16229;DHT22;8222;51.462;12.630;2022-11-20T12:57:45;4.00;99.90
16229;DHT22;8222;51.462;12.630;2022-11-20T13:00:23;4.10;99.90
16229;DHT22;8222;51.462;12.630;2022-11-20T13:03:16;4.10;99.90
16229;DHT22;8222;51.462;12.630;2022-11-20T13:06:04;4.00;99.90
16229;DHT22;8222;51.462;12.630;2022-11-20T13:08:36;4.00;99.90
16229;DHT22;8222;51.462;12.630;2022-11-20T13:11:16;4.00;99.90
16229;DHT22;8222;51.462;12.630;2022-11-20T13:17:04;4.10;99.90
16229;DHT22;8222;51.462;12.630;2022-11-20T13:19:31;4.60;99.90
16229;DHT22;8222;51.462;12.630;2022-11-20T13:21:57;4.20;99.90
16229;DHT22;8222;51.462;12.630;2022-11-20T13:24:29;4.20;99.90
16229;DHT22;8222;51.462;12.630;2022-11-20T13:29:26;4.20;99.90
16229;DHT22;8222;51.462;12.630;2022-11-20T13:32:06;4.20;99.90
16229;DHT22;8222;51.462;12.630;2022-11-20T13:34:32;4.20;99.90
16229;DHT22;8222;51.462;12.630;2022-11-20T13:36:59;4.20;99.90
16229;DHT22;8222;51.462;12.630;2022-11-20T13:39:36;4.20;99.90
16229;DHT22;8222;51.462;12.630;2022-11-20T13:42:27;4.30;99.90
16229;DHT22;8222;51.462;12.630;2022-11-20T13:44:54;4.10;99.90
16229;DHT22;8222;51.462;12.630;2022-11-20T13:47:23;4.10;99.90
16229;DHT22;8222;51.462;12.630;2022-11-20T13:49:52;4.10;99.90
16229;DHT22;8222;51.462;12.630;2022-11-20T14:01:20;3.80;99.90
16229;DHT22;8222;51.462;12.630;2022-11-20T14:03:47;3.80;99.90
16229;DHT22;8222;51.462;12.630;2022-11-20T14:06:29;3.60;99.90
16229;DHT22;8222;51.462;12.630;2022-11-20T14:09:00;3.60;99.90
16229;DHT22;8222;51.462;12.630;2022-11-20T14:11:29;3.80;99.90
16229;DHT22;8222;51.462;12.630;2022-11-20T14:14:03;3.80;99.90
16229;DHT22;8222;51.462;12.630;2022-11-20T14:16:36;3.80;99.90
16229;DHT22;8222;51.462;12.630;2022-11-20T14:21:47;2.70;99.90
16229;DHT22;8222;51.462;12.630;2022-11-20T14:24:20;3.80;99.90
16229;DHT22;8222;51.462;12.630;2022-11-20T14:26:46;4.10;99.90
16229;DHT22;8222;51.462;12.630;2022-11-20T14:29:28;3.70;99.90
16229;DHT22;8222;51.462;12.630;2022-11-20T14:31:55;3.60;99.90
16229;DHT22;8222;51.462;12.630;2022-11-20T14:34:24;3.60;99.90
16229;DHT22;8222;51.462;12.630;2022-11-20T14:37:01;3.30;99.90
16229;DHT22;8222;51.462;12.630;2022-11-20T14:39:36;3.30;99.90
16229;DHT22;8222;51.462;12.630;2022-11-20T14:44:45;3.10;99.90
16229;DHT22;8222;51.462;12.630;2022-11-20T14:47:18;3.00;99.90
16229;DHT22;8222;51.462;12.630;2022-11-20T14:49:44;3.00;99.90
16229;DHT22;8222;51.462;12.630;2022-11-20T14:52:22;3.20;99.90
16229;DHT22;8222;51.462;12.630;2022-11-20T14:57:28;2.70;99.90
16229;DHT22;8222;51.462;12.630;2022-11-20T15:02:45;2.50;99.90
16229;DHT22;8222;51.462;12.630;2022-11-20T15:05:11;2.50;99.90
16229;DHT22;8222;51.462;12.630;2022-11-20T15:07:39;2.60;99.90
16229;DHT22;8222;51.462;12.630;2022-11-20T15:10:24;2.40;99.90
16229;DHT22;8222;51.462;12.630;2022-11-20T15:12:55;2.30;99.90
16229;DHT22;8222;51.462;12.630;2022-11-20T15:15:33;2.40;99.90
16229;DHT22;8222;51.462;12.630;2022-11-20T15:18:00;2.40;99.90
16229;DHT22;8222;51.462;12.630;2022-11-20T15:20:30;2.30;99.90
16229;DHT22;8222;51.462;12.630;2022-11-20T15:22:56;2.20;99.90
16229;DHT22;8222;51.462;12.630;2022-11-20T15:25:22;2.20;99.90
16229;DHT22;8222;51.462;12.630;2022-11-20T15:27:53;2.20;99.90
16229;DHT22;8222;51.462;12.630;2022-11-20T15:30:20;2.10;99.90
16229;DHT22;8222;51.462;12.630;2022-11-20T15:32:46;2.10;99.90
16229;DHT22;8222;51.462;12.630;2022-11-20T15:35:13;2.00;99.90
16229;DHT22;8222;51.462;12.630;2022-11-20T15:37:40;2.30;99.90
16229;DHT22;8222;51.462;12.630;2022-11-20T15:40:06;1.80;99.90
16229;DHT22;8222;51.462;12.630;2022-11-20T15:42:33;1.80;99.90
16229;DHT22;8222;51.462;12.630;2022-11-20T15:45:01;1.70;99.90
16229;DHT22;8222;51.462;12.630;2022-11-20T15:47:30;1.70;99.90
16229;DHT22;8222;51.462;12.630;2022-11-20T15:49:56;1.70;99.90
16229;DHT22;8222;51.462;12.630;2022-11-20T15:52:22;1.70;99.90
16229;DHT22;8222;51.462;12.630;2022-11-20T15:54:48;1.60;99.90
16229;DHT22;8222;51.462;12.630;2022-11-20T15:57:13;1.60;99.90
16229;DHT22;8222;51.462;12.630;2022-11-20T15:59:41;1.50;99.90
16229;DHT22;8222;51.462;12.630;2022-11-20T16:02:14;1.40;99.90
16229;DHT22;8222;51.462;12.630;2022-11-20T16:04:41;1.30;99.90
16229;DHT22;8222;51.462;12.630;2022-11-20T16:07:07;1.40;99.90
16229;DHT22;8222;51.462;12.630;2022-11-20T16:09:32;1.30;99.90
16229;DHT22;8222;51.462;12.630;2022-11-20T16:11:59;1.40;99.90
16229;DHT22;8222;51.462;12.630;2022-11-20T16:14:28;1.50;99.90
16229;DHT22;8222;51.462;12.630;2022-11-20T16:17:12;1.40;99.90
16229;DHT22;8222;51.462;12.630;2022-11-20T16:19:38;1.40;99.90
16229;DHT22;8222;51.462;12.630;2022-11-20T16:22:06;1.50;99.90
16229;DHT22;8222;51.462;12.630;2022-11-20T16:24:31;1.00;99.90
16229;DHT22;8222;51.462;12.630;2022-11-20T16:26:57;1.00;99.90
16229;DHT22;8222;51.462;12.630;2022-11-20T16:29:23;0.90;99.90
16229;DHT22;8222;51.462;12.630;2022-11-20T16:31:50;1.80;99.90
16229;DHT22;8222;51.462;12.630;2022-11-20T16:34:16;0.90;99.90
16229;DHT22;8222;51.462;12.630;2022-11-20T16:36:43;0.80;99.90
16229;DHT22;8222;51.462;12.630;2022-11-20T16:39:10;0.80;99.90
16229;DHT22;8222;51.462;12.630;2022-11-20T16:41:37;0.80;99.90
16229;DHT22;8222;51.462;12.630;2022-11-20T16:44:07;0.70;99.90
16229;DHT22;8222;51.462;12.630;2022-11-20T16:46:33;0.70;99.90
16229;DHT22;8222;51.462;12.630;2022-11-20T16:49:00;0.80;99.90
16229;DHT22;8222;51.462;12.630;2022-11-20T16:51:28;0.80;99.90
16229;DHT22;8222;51.462;12.630;2022-11-20T16:53:54;0.80;99.90
16229;DHT22;8222;51.462;12.630;2022-11-20T16:56:24;0.80;99.90
16229;DHT22;8222;51.462;12.630;2022-11-20T16:58:52;0.80;99.90
16229;DHT22;8222;51.462;12.630;2022-11-20T17:01:19;0.80;99.90
16229;DHT22;8222;51.462;12.630;2022-11-20T17:03:50;0.80;99.90
16229;DHT22;8222;51.462;12.630;2022-11-20T17:06:20;0.80;99.90
16229;DHT22;8222;51.462;12.630;2022-11-20T17:08:48;0.80;99.90
16229;DHT22;8222;51.462;12.630;2022-11-20T17:11:15;1.10;99.90
16229;DHT22;8222;51.462;12.630;2022-11-20T17:13:41;0.80;99.90
16229;DHT22;8222;51.462;12.630;2022-11-20T17:16:09;0.70;99.90
16229;DHT22;8222;51.462;12.630;2022-11-20T17:18:36;0.90;99.90